Mount Vernon, WA

12:31 PM PDT on October 30, 2014 (GMT -0700)
Maddox Creek | Change Station
CLOSE
Current Station
Personal Weather Station
Location: Mount Vernon, WA
Elevation: 404 ft
Nearby Weather Stations

Elev 404 ft 48.41 °N, 122.30 °W | Updated 1 second ago

Overcast
Overcast
61.3 °F
Feels Like 61.3 °F
N
0.9
Wind Variable Wind from SSW
Gusts 2.5 mph

Today
High -- | Low -- °F
--% Chance of Precip.
Yesterday
High -- | Low -- °F
Precip. -- in
7:52 AM 5:52 PM
Waxing Crescent, 47% visible
Pressure 29.81 in
Visibility 10.0 miles
Clouds Scattered Clouds 4000 ft
Mostly Cloudy 10000 ft
Overcast 11000 ft
Dew Point 51 °F
Humidity 68%
Rainfall 0.00 in
Snow Depth Not available.
UV 1 out of 12
Pollen .30 out of 12
Air Quality Not available.
Flu Activity Not available.
METAR KNUW 301856Z 14016KT 10SM SCT040 BKN100 OVC110 15/11 A2980 RMK AO2 RAE15 SLP094 P0000 T01500111 $

More Conditions Fewer Conditions

Pressure 29.81 in
Visibility 10.0 miles
Clouds Scattered Clouds 4000 ft
Mostly Cloudy 10000 ft
Overcast 11000 ft
Dew Point 51 °F
Humidity 68%
Rainfall 0.00 in
Snow Depth Not available.
UV 1 out of 12
Pollen .30 out of 12
Air Quality Not available.
Flu Activity Not available.
METAR KNUW 301856Z 14016KT 10SM SCT040 BKN100 OVC110 15/11 A2980 RMK AO2 RAE15 SLP094 P0000 T01500111 $

More Conditions Fewer Conditions

10-Day Weather Forecast

Almanac

Astronomy

Oct. 30, 2014 Rise Set
Actual Time
Civil Twilight
Nautical Twilight
Astronomical Twilight
Moon
Length of Visible Light
Length of Day
Tomorrow will be .
, % of the Moon is Illuminated

Today's Extremes

State Highs State Lows

Community

WunderPhotos

Upload Photos

1,766,451 photos uploaded!

WunderBlogs® & News

Nearby

Air Quality

  Air Quality AQ Index Pollutant
Not available.

Snow Depth

Station Depth Elevation

Earthquake Activity

City Distance Mag. Time & Date
Minimum magnitude displayed is 2.5.

Coastal Water Temperatures

Place Temperature

Nearby Weather Stations